createdAt,value
2022-12-20T00:00:52.420Z,-1.56
2022-12-20T00:01:56.437Z,-1.55
2022-12-20T00:03:00.535Z,-1.55
2022-12-20T00:04:13.125Z,-1.54
2022-12-20T00:05:16.827Z,-1.52
2022-12-20T00:06:22.271Z,-1.53
2022-12-20T00:07:26.003Z,-1.50
2022-12-20T00:08:30.075Z,-1.52
2022-12-20T00:09:33.659Z,-1.52
2022-12-20T00:10:43.736Z,-1.49
2022-12-20T00:11:48.071Z,-1.52
2022-12-20T00:12:52.003Z,-1.48
2022-12-20T00:13:56.415Z,-1.48
2022-12-20T00:15:00.283Z,-1.46
2022-12-20T00:16:15.246Z,-1.45
2022-12-20T00:17:18.988Z,-1.47
2022-12-20T00:18:23.210Z,-1.44
2022-12-20T00:19:27.047Z,-1.42
2022-12-20T00:20:31.468Z,-1.39
2022-12-20T00:21:36.513Z,-1.40
2022-12-20T00:22:40.538Z,-1.37
2022-12-20T00:23:44.307Z,-1.39
2022-12-20T00:24:48.720Z,-1.37
2022-12-20T00:25:52.587Z,-1.33
2022-12-20T00:26:58.751Z,-1.34
2022-12-20T00:28:06.599Z,-1.31
2022-12-20T00:29:10.810Z,-1.31
2022-12-20T00:30:16.282Z,-1.30
2022-12-20T00:31:23.344Z,-1.30
2022-12-20T00:32:28.161Z,-1.29
2022-12-20T00:33:35.159Z,-1.30
2022-12-20T00:34:38.973Z,-1.28
2022-12-20T00:35:43.540Z,-1.29
2022-12-20T00:36:47.515Z,-1.29
2022-12-20T00:37:51.135Z,-1.27
2022-12-20T00:38:57.567Z,-1.26
2022-12-20T00:40:01.335Z,-1.25
2022-12-20T00:41:15.791Z,-1.25
2022-12-20T00:42:20.369Z,-1.23
2022-12-20T00:43:24.736Z,-1.25
2022-12-20T00:44:35.143Z,-1.26
2022-12-20T00:45:39.487Z,-1.24
2022-12-20T00:46:43.750Z,-1.22
2022-12-20T00:47:47.310Z,-1.19
2022-12-20T00:48:52.452Z,-1.16
2022-12-20T00:49:56.429Z,-1.14
2022-12-20T00:51:13.523Z,-1.12
2022-12-20T00:52:17.871Z,-1.10
2022-12-20T00:53:26.348Z,-1.08
2022-12-20T00:54:30.801Z,-1.07
2022-12-20T00:55:34.916Z,-1.04
2022-12-20T00:56:42.225Z,-1.04
2022-12-20T00:57:48.933Z,-1.02
2022-12-20T00:58:53.595Z,-1.01
2022-12-20T00:59:57.416Z,-1.00
2022-12-20T01:01:01.880Z,-0.97
2022-12-20T01:02:06.101Z,-0.98
2022-12-20T01:03:10.851Z,-0.97
2022-12-20T01:04:15.217Z,-0.96
2022-12-20T01:05:22.119Z,-0.94
2022-12-20T01:06:26.748Z,-0.93
2022-12-20T01:07:30.628Z,-0.91
2022-12-20T01:08:34.728Z,-0.88
2022-12-20T01:09:39.714Z,-0.87
2022-12-20T01:10:43.246Z,-0.85
2022-12-20T01:11:46.840Z,-0.84
2022-12-20T01:12:51.047Z,-0.81
2022-12-20T01:13:57.838Z,-0.82
2022-12-20T01:15:01.506Z,-0.81
2022-12-20T01:16:16.326Z,-0.81
2022-12-20T01:17:20.314Z,-0.79
2022-12-20T01:18:23.959Z,-0.78
2022-12-20T01:19:27.791Z,-0.75
2022-12-20T01:20:31.484Z,-0.74
2022-12-20T01:21:36.265Z,-0.72
2022-12-20T01:22:45.552Z,-0.71
2022-12-20T01:23:52.649Z,-0.70
2022-12-20T01:24:56.570Z,-0.70
2022-12-20T01:26:02.745Z,-0.69
2022-12-20T01:27:06.727Z,-0.71
2022-12-20T01:28:10.401Z,-0.70
2022-12-20T01:29:15.115Z,-0.70
2022-12-20T01:30:19.062Z,-0.69
2022-12-20T01:31:24.518Z,-0.69
2022-12-20T01:32:28.233Z,-0.68
2022-12-20T01:33:32.097Z,-0.66
2022-12-20T01:34:35.818Z,-0.66
2022-12-20T01:35:39.473Z,-0.67
2022-12-20T01:36:43.222Z,-0.64
2022-12-20T01:37:46.955Z,-0.63
2022-12-20T01:38:51.267Z,-0.61
2022-12-20T01:39:54.803Z,-0.62
2022-12-20T01:40:59.999Z,-0.61
2022-12-20T01:42:05.379Z,-0.59
2022-12-20T01:43:15.728Z,-0.59
2022-12-20T01:44:19.623Z,-0.59
2022-12-20T01:45:31.269Z,-0.59
2022-12-20T01:46:39.749Z,-0.58
2022-12-20T01:47:43.708Z,-0.59
2022-12-20T01:49:08.379Z,-0.58
2022-12-20T01:50:12.457Z,-0.60
2022-12-20T01:51:17.412Z,-0.60
2022-12-20T01:52:36.279Z,-0.66
2022-12-20T01:53:40.384Z,-0.63
2022-12-20T01:55:11.129Z,-0.63
2022-12-20T01:56:15.069Z,-0.61
2022-12-20T01:57:29.906Z,-0.70
2022-12-20T01:58:36.014Z,-0.72
2022-12-20T01:59:47.185Z,-0.82
2022-12-20T02:00:50.853Z,-0.80
2022-12-20T02:02:02.260Z,-0.79
2022-12-20T02:03:11.619Z,-0.80
2022-12-20T02:04:15.236Z,-0.85
2022-12-20T02:05:23.938Z,-0.85
2022-12-20T02:06:28.287Z,-0.85
2022-12-20T02:07:36.254Z,-0.82
2022-12-20T02:08:40.011Z,-0.82
2022-12-20T02:09:44.556Z,-0.81
2022-12-20T02:12:00.665Z,-0.85
2022-12-20T02:13:28.973Z,-0.84
2022-12-20T02:14:45.080Z,-0.82
2022-12-20T02:16:00.445Z,-0.79
2022-12-20T02:17:57.210Z,-0.75
2022-12-20T02:19:31.255Z,-0.74
2022-12-20T02:21:23.654Z,-0.71
2022-12-20T02:22:57.898Z,-0.67
2022-12-20T02:24:10.048Z,-0.64
2022-12-20T02:25:28.496Z,-0.65
2022-12-20T02:27:18.589Z,-0.63
2022-12-20T02:29:01.869Z,-0.65
2022-12-20T02:30:22.652Z,-0.64
2022-12-20T02:31:58.109Z,-0.65
2022-12-20T02:33:07.682Z,-0.71
2022-12-20T02:34:12.915Z,-0.78
2022-12-20T02:35:26.175Z,-0.78
2022-12-20T02:36:30.368Z,-0.72
2022-12-20T02:37:34.363Z,-0.68
2022-12-20T02:38:39.081Z,-0.64
2022-12-20T02:39:46.376Z,-0.59
2022-12-20T02:40:54.319Z,-0.60
2022-12-20T02:42:27.129Z,-0.57
2022-12-20T02:43:52.940Z,-0.56
2022-12-20T02:45:18.341Z,-0.54
2022-12-20T02:46:26.733Z,-0.54
2022-12-20T02:48:05.312Z,-0.52
2022-12-20T02:49:21.391Z,-0.49
2022-12-20T02:50:36.453Z,-0.49
2022-12-20T02:51:45.421Z,-0.46
2022-12-20T02:52:51.157Z,-0.44
2022-12-20T02:53:55.787Z,-0.42
2022-12-20T02:55:01.162Z,-0.40
2022-12-20T02:56:28.016Z,-0.41
2022-12-20T02:58:02.878Z,-0.43
2022-12-20T02:59:20.038Z,-0.38
2022-12-20T03:00:24.492Z,-0.36
2022-12-20T03:02:03.986Z,-0.35
2022-12-20T03:03:23.298Z,-0.36
2022-12-20T03:04:35.508Z,-0.35
2022-12-20T03:05:49.127Z,-0.33
2022-12-20T03:07:12.885Z,-0.30
2022-12-20T03:08:17.910Z,-0.29
2022-12-20T03:09:21.526Z,-0.26
2022-12-20T03:10:25.330Z,-0.23
2022-12-20T03:11:29.193Z,-0.19
2022-12-20T03:12:32.817Z,-0.16
2022-12-20T03:13:36.416Z,-0.15
2022-12-20T03:14:40.724Z,-0.13
2022-12-20T03:15:44.774Z,-0.10
2022-12-20T03:16:48.750Z,-0.09
2022-12-20T03:17:52.476Z,-0.07
2022-12-20T03:18:56.066Z,-0.05
2022-12-20T03:19:59.778Z,-0.05
2022-12-20T03:21:04.019Z,-0.02
2022-12-20T03:22:13.072Z,-0.01
2022-12-20T03:23:16.905Z,0.02
2022-12-20T03:24:23.295Z,0.04
2022-12-20T03:25:27.955Z,0.05
2022-12-20T03:26:32.027Z,0.08
2022-12-20T03:27:35.813Z,0.08
2022-12-20T03:28:39.773Z,0.09
2022-12-20T03:29:45.048Z,0.09
2022-12-20T03:30:49.447Z,0.10
2022-12-20T03:31:53.613Z,0.10
2022-12-20T03:32:58.029Z,0.09
2022-12-20T03:34:02.029Z,0.09
2022-12-20T03:35:06.749Z,0.10
2022-12-20T03:36:10.676Z,0.09
2022-12-20T03:37:14.452Z,0.12
2022-12-20T03:38:18.165Z,0.14
2022-12-20T03:39:22.437Z,0.14
2022-12-20T03:40:26.525Z,0.16
2022-12-20T03:41:30.474Z,0.17
2022-12-20T03:42:34.549Z,0.13
2022-12-20T03:43:38.335Z,0.15
2022-12-20T03:44:42.625Z,0.16
2022-12-20T03:45:46.487Z,0.16
2022-12-20T03:46:50.301Z,0.17
2022-12-20T03:47:54.041Z,0.16
2022-12-20T03:48:57.855Z,0.18
2022-12-20T03:50:01.643Z,0.19
2022-12-20T03:51:05.737Z,0.19
2022-12-20T03:52:13.228Z,0.17
2022-12-20T03:53:16.899Z,0.18
2022-12-20T03:54:21.205Z,0.19
2022-12-20T03:55:25.052Z,0.19
2022-12-20T03:56:28.876Z,0.14
2022-12-20T03:57:32.523Z,0.17
2022-12-20T03:58:36.178Z,0.19
2022-12-20T03:59:40.348Z,0.19
2022-12-20T04:00:44.139Z,0.21
2022-12-20T04:01:48.248Z,0.21
2022-12-20T04:02:52.623Z,0.24
2022-12-20T04:03:57.504Z,0.25
2022-12-20T04:05:01.270Z,0.27
2022-12-20T04:06:05.430Z,0.28
2022-12-20T04:07:09.534Z,0.30
2022-12-20T04:08:13.210Z,0.31
2022-12-20T04:09:16.967Z,0.31
2022-12-20T04:10:24.035Z,0.34
2022-12-20T04:11:28.096Z,0.33
2022-12-20T04:12:31.754Z,0.35
2022-12-20T04:13:35.547Z,0.35
2022-12-20T04:14:39.073Z,0.35
2022-12-20T04:15:42.775Z,0.36
2022-12-20T04:16:46.984Z,0.37
2022-12-20T04:17:50.864Z,0.38
2022-12-20T04:18:55.015Z,0.38
2022-12-20T04:19:58.683Z,0.39
2022-12-20T04:21:09.956Z,0.37
2022-12-20T04:22:14.196Z,0.38
2022-12-20T04:23:18.172Z,0.35
2022-12-20T04:24:22.551Z,0.34
2022-12-20T04:25:26.211Z,0.33
2022-12-20T04:26:30.541Z,0.33
2022-12-20T04:27:34.300Z,0.32
2022-12-20T04:28:37.922Z,0.30
2022-12-20T04:29:41.576Z,0.30
2022-12-20T04:30:45.479Z,0.28
2022-12-20T04:31:49.630Z,0.27
2022-12-20T04:32:54.973Z,0.26
2022-12-20T04:33:58.953Z,0.26
2022-12-20T04:35:04.194Z,0.28
2022-12-20T04:36:08.132Z,0.27
2022-12-20T04:37:12.249Z,0.21
2022-12-20T04:38:16.449Z,0.22
2022-12-20T04:39:20.190Z,0.21
2022-12-20T04:40:24.021Z,0.23
2022-12-20T04:41:27.721Z,0.22
2022-12-20T04:42:31.729Z,0.23
2022-12-20T04:43:35.396Z,0.22
2022-12-20T04:44:39.169Z,0.21
2022-12-20T04:45:44.287Z,0.20
2022-12-20T04:46:47.930Z,0.20
2022-12-20T04:47:51.757Z,0.19
2022-12-20T04:49:07.415Z,0.19
2022-12-20T04:50:11.521Z,0.18
2022-12-20T04:51:16.686Z,0.18
2022-12-20T04:52:45.551Z,0.16
2022-12-20T04:53:52.645Z,0.17
2022-12-20T04:54:56.416Z,0.15
2022-12-20T04:56:00.738Z,0.16
2022-12-20T04:57:07.998Z,0.16
2022-12-20T04:58:11.834Z,0.15
2022-12-20T04:59:15.571Z,0.16
2022-12-20T05:00:19.919Z,0.13
2022-12-20T05:01:24.424Z,0.10
2022-12-20T05:02:28.279Z,0.10
2022-12-20T05:03:32.190Z,0.09
2022-12-20T05:04:37.766Z,0.09
2022-12-20T05:05:41.661Z,0.08
2022-12-20T05:06:45.358Z,0.09
2022-12-20T05:07:49.226Z,0.08
2022-12-20T05:08:52.840Z,0.08
2022-12-20T05:09:56.825Z,0.08
2022-12-20T05:11:00.914Z,0.09
2022-12-20T05:12:05.021Z,0.04
2022-12-20T05:13:09.757Z,0.06
2022-12-20T05:14:13.340Z,0.07
2022-12-20T05:15:17.127Z,0.04
2022-12-20T05:16:21.539Z,0.02
2022-12-20T05:17:26.042Z,0.00
2022-12-20T05:18:30.038Z,-0.02
2022-12-20T05:19:38.555Z,0.04
2022-12-20T05:20:42.441Z,0.04
2022-12-20T05:22:04.773Z,0.05
2022-12-20T05:23:30.887Z,0.06
2022-12-20T05:24:53.064Z,0.04
2022-12-20T05:26:15.778Z,0.02
2022-12-20T05:27:19.283Z,0.00
2022-12-20T05:28:22.880Z,0.00
2022-12-20T05:29:26.836Z,-0.04
2022-12-20T05:30:30.847Z,-0.02
2022-12-20T05:31:34.991Z,0.00
2022-12-20T05:32:40.239Z,0.03
2022-12-20T05:33:44.136Z,0.01
2022-12-20T05:34:47.967Z,-0.02
2022-12-20T05:35:51.762Z,0.00
2022-12-20T05:36:55.438Z,0.02
2022-12-20T05:37:59.004Z,0.04
2022-12-20T05:39:04.541Z,0.07
2022-12-20T05:40:12.592Z,0.07
2022-12-20T05:41:16.215Z,0.07
2022-12-20T05:42:21.473Z,0.06
2022-12-20T05:43:26.292Z,0.08
2022-12-20T05:44:31.481Z,0.08
2022-12-20T05:45:35.883Z,0.10
2022-12-20T05:46:39.630Z,0.09
2022-12-20T05:47:46.109Z,0.07
2022-12-20T05:48:49.849Z,0.02
2022-12-20T05:49:53.710Z,0.00
2022-12-20T05:50:57.848Z,0.01
2022-12-20T05:52:03.220Z,0.01
2022-12-20T05:53:15.018Z,0.04
2022-12-20T05:54:18.601Z,0.04
2022-12-20T05:55:22.274Z,0.03
2022-12-20T05:56:25.971Z,0.02
2022-12-20T05:57:29.744Z,0.02
2022-12-20T05:58:34.084Z,0.00
2022-12-20T05:59:37.648Z,-0.06
2022-12-20T06:00:45.283Z,-0.03
2022-12-20T06:01:48.941Z,-0.06
2022-12-20T06:02:52.826Z,-0.11
2022-12-20T06:03:57.089Z,-0.14
2022-12-20T06:05:00.889Z,-0.21
2022-12-20T06:06:14.153Z,-0.19
2022-12-20T06:07:22.212Z,-0.22
2022-12-20T06:08:26.165Z,-0.28
2022-12-20T06:09:30.786Z,-0.29
2022-12-20T06:10:35.261Z,-0.24
2022-12-20T06:11:39.166Z,-0.23
2022-12-20T06:12:43.212Z,-0.22
2022-12-20T06:13:47.457Z,-0.28
2022-12-20T06:14:51.607Z,-0.33
2022-12-20T06:15:55.554Z,-0.30
2022-12-20T06:16:59.241Z,-0.32
2022-12-20T06:18:03.801Z,-0.31
2022-12-20T06:19:09.255Z,-0.31
2022-12-20T06:20:13.354Z,-0.33
2022-12-20T06:21:20.235Z,-0.36
2022-12-20T06:22:23.849Z,-0.43
2022-12-20T06:23:27.974Z,-0.40
2022-12-20T06:24:31.984Z,-0.37
2022-12-20T06:25:36.031Z,-0.37
2022-12-20T06:26:40.072Z,-0.34
2022-12-20T06:27:44.020Z,-0.40
2022-12-20T06:28:52.515Z,-0.35
2022-12-20T06:29:56.499Z,-0.34
2022-12-20T06:31:03.331Z,-0.32
2022-12-20T06:32:11.438Z,-0.32
2022-12-20T06:33:15.643Z,-0.36
2022-12-20T06:34:22.442Z,-0.33
2022-12-20T06:35:26.279Z,-0.32
2022-12-20T06:36:33.299Z,-0.39
2022-12-20T06:37:37.108Z,-0.36
2022-12-20T06:38:40.758Z,-0.35
2022-12-20T06:39:44.249Z,-0.33
2022-12-20T06:40:47.833Z,-0.29
2022-12-20T06:41:52.051Z,-0.31
2022-12-20T06:42:55.604Z,-0.29
2022-12-20T06:43:59.663Z,-0.26
2022-12-20T06:45:04.896Z,-0.25
2022-12-20T06:46:08.831Z,-0.24
2022-12-20T06:47:12.694Z,-0.25
2022-12-20T06:48:16.526Z,-0.21
2022-12-20T06:49:20.202Z,-0.20
2022-12-20T06:50:24.582Z,-0.18
2022-12-20T06:51:28.229Z,-0.16
2022-12-20T06:52:32.355Z,-0.15
2022-12-20T06:53:36.226Z,-0.13
2022-12-20T06:54:40.711Z,-0.12
2022-12-20T06:55:44.378Z,-0.11
2022-12-20T06:56:48.151Z,-0.08
2022-12-20T06:57:52.872Z,-0.05
2022-12-20T06:58:56.635Z,-0.06
2022-12-20T07:00:00.568Z,-0.02
2022-12-20T07:01:06.474Z,-0.04
2022-12-20T07:02:12.513Z,-0.03
2022-12-20T07:03:16.860Z,-0.01
2022-12-20T07:04:21.035Z,-0.02
2022-12-20T07:05:24.854Z,0.02
2022-12-20T07:06:29.683Z,-0.02
2022-12-20T07:07:37.272Z,-0.01
2022-12-20T07:08:44.881Z,0.00
2022-12-20T07:09:48.496Z,0.04
2022-12-20T07:10:53.019Z,0.05
2022-12-20T07:11:57.928Z,0.09
2022-12-20T07:13:01.574Z,0.12
2022-12-20T07:14:05.395Z,0.15
2022-12-20T07:15:10.049Z,0.16
2022-12-20T07:16:14.845Z,0.19
2022-12-20T07:17:18.532Z,0.23
2022-12-20T07:18:22.094Z,0.24
2022-12-20T07:19:26.003Z,0.26
2022-12-20T07:20:30.971Z,0.28
2022-12-20T07:21:34.802Z,0.32
2022-12-20T07:22:38.445Z,0.34
2022-12-20T07:23:42.154Z,0.37
2022-12-20T07:24:46.614Z,0.37
2022-12-20T07:25:59.040Z,0.41
2022-12-20T07:27:03.128Z,0.44
2022-12-20T07:28:07.001Z,0.43
2022-12-20T07:30:34.228Z,0.50
2022-12-20T07:31:38.064Z,0.53
2022-12-20T07:32:41.676Z,0.55
2022-12-20T07:33:45.373Z,0.56
2022-12-20T07:34:49.096Z,0.61
2022-12-20T07:35:54.926Z,0.63
2022-12-20T07:36:59.032Z,0.67
2022-12-20T07:38:03.004Z,0.69
2022-12-20T07:39:07.037Z,0.70
2022-12-20T07:40:14.960Z,0.72
2022-12-20T07:41:19.732Z,0.75
2022-12-20T07:42:31.837Z,0.77
2022-12-20T07:43:39.639Z,0.80
2022-12-20T07:44:44.192Z,0.83
2022-12-20T07:45:47.852Z,0.83
2022-12-20T07:46:52.061Z,0.88
2022-12-20T07:47:58.401Z,0.88
2022-12-20T07:49:05.931Z,0.92
2022-12-20T07:50:10.540Z,0.94
2022-12-20T07:51:28.372Z,0.95
2022-12-20T07:52:35.103Z,0.96
2022-12-20T07:53:50.394Z,1.01
2022-12-20T07:55:03.433Z,1.04
2022-12-20T07:56:10.744Z,1.07
2022-12-20T07:57:29.733Z,1.12
2022-12-20T07:58:37.836Z,1.13
2022-12-20T07:59:48.719Z,1.16
2022-12-20T08:00:52.626Z,1.15
2022-12-20T08:02:04.006Z,1.19
2022-12-20T08:03:29.124Z,1.24
2022-12-20T08:04:35.092Z,1.25
2022-12-20T08:05:45.622Z,1.27
2022-12-20T08:06:52.228Z,1.32
2022-12-20T08:07:59.929Z,1.35
2022-12-20T08:09:06.809Z,1.39
2022-12-20T08:10:14.424Z,1.42
2022-12-20T08:11:21.136Z,1.47
2022-12-20T08:12:30.850Z,1.50
2022-12-20T08:13:38.129Z,1.54
2022-12-20T08:14:45.409Z,1.57
2022-12-20T08:15:49.696Z,1.59
2022-12-20T08:16:53.871Z,1.62
2022-12-20T08:17:58.145Z,1.67
2022-12-20T08:19:01.886Z,1.69
2022-12-20T08:20:07.074Z,1.72
2022-12-20T08:21:13.406Z,1.75
2022-12-20T08:22:17.715Z,1.76
2022-12-20T08:23:22.011Z,1.80
2022-12-20T08:24:25.666Z,1.83
2022-12-20T08:25:29.428Z,1.86
2022-12-20T08:26:40.270Z,1.88
2022-12-20T08:27:44.856Z,1.90
2022-12-20T08:28:48.610Z,1.93
2022-12-20T08:29:52.607Z,1.97
2022-12-20T08:31:05.833Z,2.02
2022-12-20T08:32:11.117Z,2.03
2022-12-20T08:33:14.767Z,2.03
2022-12-20T08:34:18.893Z,2.06
2022-12-20T08:35:23.663Z,2.03
2022-12-20T08:36:27.795Z,2.05
2022-12-20T08:37:31.895Z,2.07
2022-12-20T08:38:36.289Z,2.08
2022-12-20T08:39:39.782Z,2.07
2022-12-20T08:40:43.327Z,2.07
2022-12-20T08:41:46.992Z,2.08
2022-12-20T08:42:51.021Z,2.05
2022-12-20T08:43:54.526Z,2.10
2022-12-20T08:44:58.560Z,2.11
2022-12-20T08:46:02.861Z,2.15
2022-12-20T08:47:06.552Z,2.14
2022-12-20T08:48:10.656Z,2.18
2022-12-20T08:49:14.294Z,2.18
2022-12-20T08:50:17.871Z,2.19
2022-12-20T08:51:21.986Z,2.19
2022-12-20T08:52:25.523Z,2.23
2022-12-20T08:53:30.538Z,2.28
2022-12-20T08:54:34.250Z,2.29
2022-12-20T08:55:38.063Z,2.33
2022-12-20T08:56:41.899Z,2.35
2022-12-20T08:57:45.508Z,2.38
2022-12-20T08:58:49.743Z,2.41
2022-12-20T08:59:53.222Z,2.30
2022-12-20T09:01:06.205Z,2.31
2022-12-20T09:02:10.543Z,2.29
2022-12-20T09:03:15.583Z,2.34
2022-12-20T09:04:19.893Z,2.37
2022-12-20T09:05:24.782Z,2.37
2022-12-20T09:06:28.642Z,2.35
2022-12-20T09:07:32.628Z,2.25
2022-12-20T09:08:39.333Z,2.26
2022-12-20T09:09:43.018Z,2.32
2022-12-20T09:10:46.585Z,2.41
2022-12-20T09:11:50.255Z,2.49
2022-12-20T09:12:54.226Z,2.52
2022-12-20T09:13:59.882Z,2.57
2022-12-20T09:15:04.563Z,2.62
2022-12-20T09:16:09.319Z,2.65
2022-12-20T09:17:13.041Z,2.70
2022-12-20T09:18:16.734Z,2.68
2022-12-20T09:19:20.535Z,2.74
2022-12-20T09:20:24.794Z,2.63
2022-12-20T09:21:29.103Z,2.64
2022-12-20T09:22:33.273Z,2.67
2022-12-20T09:23:38.570Z,2.69
2022-12-20T09:24:42.203Z,2.70
2022-12-20T09:25:50.338Z,2.70
2022-12-20T09:26:57.396Z,2.73
2022-12-20T09:28:01.021Z,2.81
2022-12-20T09:29:05.563Z,2.87
2022-12-20T09:30:09.782Z,2.92
2022-12-20T09:31:17.157Z,3.00
2022-12-20T09:32:21.015Z,3.08
2022-12-20T09:33:24.518Z,3.13
2022-12-20T09:34:28.027Z,3.19
2022-12-20T09:35:33.844Z,3.26
2022-12-20T09:36:38.630Z,3.33
2022-12-20T09:37:42.251Z,3.39
2022-12-20T09:38:47.640Z,3.45
2022-12-20T09:39:51.789Z,3.47
2022-12-20T09:41:01.848Z,3.55
2022-12-20T09:42:09.796Z,3.57
2022-12-20T09:43:17.021Z,3.60
2022-12-20T09:44:29.664Z,3.53
2022-12-20T09:45:37.507Z,3.62
2022-12-20T09:46:43.431Z,3.69
2022-12-20T09:47:47.706Z,3.73
2022-12-20T09:48:51.814Z,3.74
2022-12-20T09:49:58.019Z,3.79
2022-12-20T09:51:16.771Z,3.80
2022-12-20T09:52:53.157Z,3.77
2022-12-20T09:54:26.919Z,3.73
2022-12-20T09:55:59.324Z,3.80
2022-12-20T09:57:29.466Z,3.80
2022-12-20T09:58:58.404Z,3.85
2022-12-20T10:00:02.192Z,3.93
2022-12-20T10:01:34.400Z,3.89
2022-12-20T10:02:58.897Z,3.98
2022-12-20T10:04:18.959Z,4.00
2022-12-20T10:05:55.152Z,4.00
2022-12-20T10:07:53.708Z,4.05
2022-12-20T10:09:13.268Z,4.02
2022-12-20T10:10:51.637Z,4.08
2022-12-20T10:12:12.257Z,4.07
2022-12-20T10:13:53.896Z,4.12
2022-12-20T10:15:18.103Z,4.12
2022-12-20T10:16:45.168Z,4.09
2022-12-20T10:18:47.000Z,4.16
2022-12-20T10:20:06.737Z,4.13
2022-12-20T10:21:58.378Z,4.19
2022-12-20T10:23:30.967Z,4.13
2022-12-20T10:24:41.415Z,4.21
2022-12-20T10:25:47.689Z,4.21
2022-12-20T10:26:52.022Z,4.10
2022-12-20T10:28:00.892Z,4.11
2022-12-20T10:29:05.075Z,4.20
2022-12-20T10:30:35.674Z,4.23
2022-12-20T10:31:40.481Z,4.27
2022-12-20T10:32:51.199Z,4.30
2022-12-20T10:33:55.244Z,4.37
2022-12-20T10:35:19.155Z,4.33
2022-12-20T10:36:29.470Z,4.28
2022-12-20T10:37:33.243Z,4.28
2022-12-20T10:38:49.769Z,4.33
2022-12-20T10:39:53.628Z,4.37
2022-12-20T10:41:21.333Z,4.42
2022-12-20T10:42:40.962Z,4.53
2022-12-20T10:43:52.114Z,4.57
2022-12-20T10:44:57.981Z,4.53
2022-12-20T10:46:08.527Z,4.57
2022-12-20T10:47:41.441Z,4.59
2022-12-20T10:48:48.833Z,4.58
2022-12-20T10:49:52.457Z,4.61
2022-12-20T10:51:19.986Z,4.66
2022-12-20T10:52:23.568Z,4.54
2022-12-20T10:53:28.873Z,4.68
2022-12-20T10:54:40.964Z,4.59
2022-12-20T10:55:45.266Z,4.65
2022-12-20T10:56:59.412Z,4.77
2022-12-20T10:58:15.384Z,4.82
2022-12-20T10:59:19.233Z,4.80
2022-12-20T11:00:31.357Z,4.82
2022-12-20T11:01:37.939Z,4.84
2022-12-20T11:02:42.876Z,4.89
2022-12-20T11:04:42.515Z,4.67
2022-12-20T11:05:58.993Z,4.61
2022-12-20T11:07:24.776Z,4.58
2022-12-20T11:08:41.159Z,4.59
2022-12-20T11:09:57.158Z,4.67
2022-12-20T11:11:27.603Z,4.70
2022-12-20T11:12:31.491Z,4.59
2022-12-20T11:13:34.962Z,4.64
2022-12-20T11:14:44.073Z,4.68
2022-12-20T11:15:57.289Z,4.66
2022-12-20T11:17:23.771Z,4.63
2022-12-20T11:18:27.259Z,4.56
2022-12-20T11:19:42.988Z,4.54
2022-12-20T11:20:52.703Z,4.54
2022-12-20T11:22:37.904Z,4.51
2022-12-20T11:24:10.396Z,4.48
2022-12-20T11:25:34.872Z,4.49
2022-12-20T11:26:59.166Z,4.42
2022-12-20T11:28:31.001Z,4.48
2022-12-20T11:30:20.766Z,4.32
2022-12-20T11:31:36.579Z,4.25
2022-12-20T11:33:10.835Z,4.30
2022-12-20T11:34:32.179Z,4.36
2022-12-20T11:35:56.048Z,4.41
2022-12-20T11:37:26.210Z,4.42
2022-12-20T11:39:16.199Z,4.43
2022-12-20T11:40:50.942Z,4.45
2022-12-20T11:42:43.088Z,4.41
2022-12-20T11:44:27.914Z,4.40
2022-12-20T11:45:57.975Z,4.38
2022-12-20T11:47:43.581Z,4.34
2022-12-20T11:49:15.547Z,4.35
2022-12-20T11:50:45.640Z,4.33
2022-12-20T11:52:06.145Z,4.30
2022-12-20T11:53:27.187Z,4.26
2022-12-20T11:54:42.240Z,4.20
2022-12-20T11:55:52.256Z,4.20
2022-12-20T11:57:07.254Z,4.20
2022-12-20T11:58:26.582Z,4.21
2022-12-20T11:59:49.756Z,4.14
2022-12-20T12:01:09.960Z,4.17
2022-12-20T12:02:22.578Z,4.07
2022-12-20T12:03:26.390Z,4.04
2022-12-20T12:04:55.650Z,4.01
2022-12-20T12:06:21.702Z,4.03
2022-12-20T12:07:34.920Z,4.01
2022-12-20T12:09:02.104Z,3.98
2022-12-20T12:10:45.820Z,3.82
2022-12-20T12:12:38.389Z,3.82
2022-12-20T12:13:44.006Z,3.78
2022-12-20T12:15:17.420Z,3.77
2022-12-20T12:16:35.636Z,3.72
2022-12-20T12:17:57.155Z,3.73
2022-12-20T12:19:02.526Z,3.64
2022-12-20T12:20:30.289Z,3.74
2022-12-20T12:22:11.182Z,3.73
2022-12-20T12:23:24.520Z,3.73
2022-12-20T12:24:42.761Z,3.75
2022-12-20T12:25:47.368Z,3.78
2022-12-20T12:26:52.254Z,3.79
2022-12-20T12:27:55.958Z,3.80
2022-12-20T12:29:13.333Z,3.80
2022-12-20T12:30:18.107Z,3.80
2022-12-20T12:31:57.254Z,3.82
2022-12-20T12:33:13.938Z,3.87
2022-12-20T12:34:32.340Z,3.93
2022-12-20T12:36:01.516Z,3.96
2022-12-20T12:37:50.044Z,3.99
2022-12-20T12:39:20.240Z,4.01
2022-12-20T12:41:30.381Z,4.01
2022-12-20T12:43:18.017Z,3.95
2022-12-20T12:44:34.175Z,3.99
2022-12-20T12:45:53.110Z,3.97
2022-12-20T12:47:06.027Z,3.94
2022-12-20T12:48:56.051Z,3.96
2022-12-20T12:49:59.983Z,3.96
2022-12-20T12:51:05.921Z,3.98
2022-12-20T12:52:42.430Z,3.92
2022-12-20T12:54:04.410Z,3.93
2022-12-20T12:55:48.179Z,3.93
2022-12-20T12:56:53.739Z,3.93
2022-12-20T12:57:59.289Z,3.96
2022-12-20T12:59:20.971Z,3.94
2022-12-20T13:00:55.191Z,3.95
2022-12-20T13:02:04.749Z,3.94
2022-12-20T13:03:17.070Z,3.94
2022-12-20T13:04:20.822Z,3.94
2022-12-20T13:05:34.341Z,3.93
2022-12-20T13:06:38.391Z,3.95
2022-12-20T13:07:43.913Z,3.97
2022-12-20T13:09:41.765Z,3.98
2022-12-20T13:10:58.961Z,3.97
2022-12-20T13:12:37.726Z,3.94
2022-12-20T13:13:41.317Z,3.92
2022-12-20T13:14:49.944Z,3.94
2022-12-20T13:16:09.950Z,3.96
2022-12-20T13:17:16.239Z,3.97
2022-12-20T13:18:25.712Z,3.95
2022-12-20T13:19:29.146Z,3.96
2022-12-20T13:20:36.994Z,3.98
2022-12-20T13:21:53.467Z,4.00
2022-12-20T13:23:09.031Z,4.01
2022-12-20T13:24:58.587Z,4.01
2022-12-20T13:26:55.075Z,3.99
2022-12-20T13:28:18.082Z,4.02
2022-12-20T13:29:36.571Z,4.04
2022-12-20T13:30:40.497Z,4.02
2022-12-20T13:31:47.246Z,4.02
2022-12-20T13:33:03.159Z,4.02
2022-12-20T13:34:40.443Z,4.03
2022-12-20T13:36:00.709Z,3.96
2022-12-20T13:37:27.255Z,3.93
2022-12-20T13:38:46.201Z,3.94
2022-12-20T13:39:50.536Z,3.95
2022-12-20T13:41:02.063Z,3.96
2022-12-20T13:42:38.862Z,3.93
2022-12-20T13:43:48.762Z,3.91
2022-12-20T13:44:55.194Z,3.91
2022-12-20T13:46:11.076Z,3.93
2022-12-20T13:47:39.425Z,3.91
2022-12-20T13:48:56.165Z,3.91
2022-12-20T13:50:26.812Z,3.88
2022-12-20T13:51:31.828Z,3.85
2022-12-20T13:52:44.272Z,3.87
2022-12-20T13:54:05.615Z,3.86
2022-12-20T13:55:31.635Z,3.85
2022-12-20T13:56:51.803Z,3.86
2022-12-20T13:57:55.559Z,3.84
2022-12-20T13:59:07.689Z,3.85
2022-12-20T14:00:25.708Z,3.83
2022-12-20T14:01:31.435Z,3.82
2022-12-20T14:02:43.628Z,3.82
2022-12-20T14:03:48.179Z,3.83
2022-12-20T14:05:02.415Z,3.83
2022-12-20T14:06:11.230Z,3.79
2022-12-20T14:07:18.701Z,3.79
2022-12-20T14:08:29.215Z,3.76
2022-12-20T14:09:38.692Z,3.79
2022-12-20T14:10:42.586Z,3.79
2022-12-20T14:11:49.250Z,3.81
2022-12-20T14:12:53.976Z,3.82
2022-12-20T14:14:05.341Z,3.77
2022-12-20T14:15:34.068Z,3.77
2022-12-20T14:16:39.107Z,3.77
2022-12-20T14:17:44.824Z,3.78
2022-12-20T14:19:05.785Z,3.80
2022-12-20T14:20:32.159Z,3.71
2022-12-20T14:21:43.015Z,3.72
2022-12-20T14:23:06.650Z,3.74
2022-12-20T14:24:22.580Z,3.73
2022-12-20T14:25:51.270Z,3.71
2022-12-20T14:26:55.915Z,3.72
2022-12-20T14:28:00.585Z,3.72
2022-12-20T14:29:16.022Z,3.71
2022-12-20T14:30:32.216Z,3.70
2022-12-20T14:31:43.078Z,3.68
2022-12-20T14:32:50.588Z,3.66
2022-12-20T14:34:06.723Z,3.67
2022-12-20T14:35:21.429Z,3.67
2022-12-20T14:36:25.520Z,3.63
2022-12-20T14:37:39.508Z,3.62
2022-12-20T14:38:47.549Z,3.61
2022-12-20T14:40:10.062Z,3.59
2022-12-20T14:41:34.086Z,3.56
2022-12-20T14:42:40.727Z,3.56
2022-12-20T14:43:44.759Z,3.56
2022-12-20T14:44:48.865Z,3.47
2022-12-20T14:46:20.513Z,3.45
2022-12-20T14:47:28.883Z,3.47
2022-12-20T14:48:33.101Z,3.48
2022-12-20T14:49:40.041Z,3.49
2022-12-20T14:50:54.436Z,3.50
2022-12-20T14:52:21.145Z,3.51
2022-12-20T14:53:30.337Z,3.48
2022-12-20T14:56:00.664Z,3.41
2022-12-20T14:57:12.501Z,3.41
2022-12-20T14:58:32.742Z,3.39
2022-12-20T14:59:36.799Z,3.39
2022-12-20T15:00:59.254Z,3.38
2022-12-20T15:02:35.815Z,3.36
2022-12-20T15:03:51.915Z,3.40
2022-12-20T15:04:56.925Z,3.38
2022-12-20T15:06:01.323Z,3.38
2022-12-20T15:07:05.830Z,3.38
2022-12-20T15:08:18.599Z,3.41
2022-12-20T15:09:22.444Z,3.41
2022-12-20T15:10:26.073Z,3.40
2022-12-20T15:11:30.154Z,3.42
2022-12-20T15:12:37.542Z,3.43
2022-12-20T15:13:51.649Z,3.42
2022-12-20T15:14:55.275Z,3.43
2022-12-20T15:16:35.812Z,3.42
2022-12-20T15:17:39.268Z,3.40
2022-12-20T15:18:43.096Z,3.41
2022-12-20T15:19:46.731Z,3.40
2022-12-20T15:21:03.831Z,3.39
2022-12-20T15:22:15.588Z,3.39
2022-12-20T15:23:22.389Z,3.39
2022-12-20T15:24:28.547Z,3.38
2022-12-20T15:25:43.036Z,3.37
2022-12-20T15:26:49.497Z,3.38
2022-12-20T15:27:53.369Z,3.37
2022-12-20T15:28:57.788Z,3.37
2022-12-20T15:30:01.403Z,3.34
2022-12-20T15:31:05.563Z,3.35
2022-12-20T15:32:31.026Z,3.33
2022-12-20T15:33:36.068Z,3.32